Archival Weather

Norman Y Mineta San Jose Intl

San Jose, California (KSJC)

Report from: Thursday, February 8, 2024 4:53 AM PST
Current time: Friday, June 14, 2024 6:14 AM PDT

Current weather – Weather history – Daily summaries
Weather forecast

Temperature5.0°C (41.0°F)
Dew point2.2°C (36.0°F)
Winds Calm
Visibility10 mi. (16.1 km)
Clouds Sky clear
Altimeter29.95 in.Hg (1014 mB)
Relative humidity82 %
Density altitude-1,131 ft. (-345 m)
Sea-level pressure101.4 kPa (1014 mB, 29.95 in.Hg)
Remarks Fully automated report
Automated weather observing station with precipitation discriminator
Flight conditions Visual Meteorological Conditions
Raw dataKSJC 081253Z AUTO 00000KT 10SM CLR 05/02 A2995 RMK AO2 SLP141 T00500022
An error has occurred. This application may no longer respond until reloaded. Reload 🗙